Terminal Aerodrome Forecast
Issued by NWS Atlanta, GA

Current Version | Previous Version | Text Only | Print | Product List | Glossary On
Versions: 1 2 3 4 5 6 7 8 9 10 11 12 13 14 15 16 17 18
000
FTUS42 KFFC 182300 RRA
TAFMCN
TAF
KMCN 182341Z 1900/1924 00000KT P6SM FEW050
     FM190800 04003KT 6SM BR BKN020
     FM191600 09005KT P6SM SCT040
     FM191900 08006KT P6SM BKN050=

USA.gov is the U.S. government's official web portal to all federal, state and local government web resources and services.